createdAt,value
2018-02-19T00:01:02.830Z,24.52
2018-02-19T00:03:30.322Z,24.10
2018-02-19T00:05:58.724Z,22.84
2018-02-19T00:08:28.348Z,23.86
2018-02-19T00:10:57.623Z,24.62
2018-02-19T00:13:26.710Z,23.92
2018-02-19T00:15:57.005Z,23.42
2018-02-19T00:18:25.275Z,23.58
2018-02-19T00:21:04.641Z,22.90
2018-02-19T00:23:32.913Z,24.22
2018-02-19T00:26:02.162Z,23.96
2018-02-19T00:28:30.453Z,24.58
2018-02-19T00:31:08.877Z,24.70
2018-02-19T00:33:37.150Z,23.80
2018-02-19T00:36:05.601Z,23.06
2018-02-19T00:38:33.895Z,24.04
2018-02-19T00:41:03.139Z,22.56
2018-02-19T00:43:31.400Z,24.34
2018-02-19T00:46:01.603Z,22.32
2018-02-19T00:48:29.899Z,23.98
2018-02-19T00:50:57.409Z,25.46
2018-02-19T00:53:27.029Z,26.62
2018-02-19T00:55:55.336Z,24.68
2018-02-19T00:58:23.595Z,23.82
2018-02-19T01:00:51.882Z,22.80
2018-02-19T01:03:20.165Z,23.78
2018-02-19T01:05:58.630Z,24.38
2018-02-19T01:08:28.298Z,23.38
2018-02-19T01:11:00.987Z,23.32
2018-02-19T01:13:29.254Z,23.40
2018-02-19T01:15:57.511Z,24.28
2018-02-19T01:18:26.770Z,23.36
2018-02-19T01:20:55.457Z,22.76
2018-02-19T01:23:23.763Z,22.84
2018-02-19T01:25:52.988Z,23.32
2018-02-19T01:28:21.282Z,23.76
2018-02-19T01:30:56.375Z,23.52
2018-02-19T01:33:24.667Z,22.88
2018-02-19T01:35:52.939Z,23.34
2018-02-19T01:38:21.236Z,21.94
2018-02-19T01:40:58.234Z,25.28
2018-02-19T01:43:27.630Z,25.62
2018-02-19T01:45:59.387Z,26.42
2018-02-19T01:48:27.674Z,26.86
2018-02-19T01:50:57.848Z,25.30
2018-02-19T01:53:26.488Z,27.80
2018-02-19T01:55:56.764Z,27.02
2018-02-19T01:58:25.802Z,24.60
2018-02-19T02:00:55.983Z,26.10
2018-02-19T02:03:24.238Z,24.78
2018-02-19T02:05:51.727Z,25.70
2018-02-19T02:08:20.031Z,27.08
2018-02-19T02:11:05.007Z,26.78
2018-02-19T02:13:32.530Z,25.82
2018-02-19T02:16:00.794Z,27.93
2018-02-19T02:18:29.083Z,27.17
2018-02-19T02:20:57.366Z,25.92
2018-02-19T02:23:26.715Z,26.84
2018-02-19T02:25:56.197Z,26.02
2018-02-19T02:28:24.450Z,25.92
2018-02-19T02:30:52.711Z,27.30
2018-02-19T02:33:20.991Z,26.74
2018-02-19T02:35:49.243Z,28.26
2018-02-19T02:38:17.532Z,25.86
2018-02-19T02:40:45.809Z,27.10
2018-02-19T02:43:14.067Z,27.54
2018-02-19T02:45:41.594Z,25.82
2018-02-19T02:48:09.882Z,26.08
2018-02-19T02:50:37.424Z,27.44
2018-02-19T02:53:05.676Z,25.04
2018-02-19T02:55:37.407Z,26.86
2018-02-19T02:58:05.689Z,25.74
2018-02-19T03:00:37.554Z,25.62
2018-02-19T03:03:05.834Z,25.74
2018-02-19T03:05:39.477Z,24.66
2018-02-19T03:08:07.730Z,27.16
2018-02-19T03:10:36.030Z,26.90
2018-02-19T03:13:04.291Z,27.16
2018-02-19T03:15:45.161Z,27.62
2018-02-19T03:18:13.411Z,29.88
2018-02-19T03:20:48.436Z,26.42
2018-02-19T03:23:16.730Z,25.60
2018-02-19T03:25:49.597Z,27.27
2018-02-19T03:28:17.872Z,27.34
2018-02-19T03:30:46.179Z,25.12
2018-02-19T03:33:14.447Z,26.55
2018-02-19T03:36:01.892Z,26.58
2018-02-19T03:38:30.139Z,29.68
2018-02-19T03:40:59.367Z,32.24
2018-02-19T03:43:27.658Z,32.35
2018-02-19T03:46:00.990Z,31.47
2018-02-19T03:48:29.373Z,34.72
2018-02-19T03:50:57.654Z,31.20
2018-02-19T03:53:26.962Z,32.24
2018-02-19T03:55:57.162Z,30.74
2018-02-19T03:58:26.543Z,28.94
2018-02-19T04:01:01.211Z,30.70
2018-02-19T04:03:29.514Z,31.00
2018-02-19T04:06:04.210Z,32.98
2018-02-19T04:08:32.514Z,30.12
2018-02-19T04:11:11.325Z,32.65
2018-02-19T04:13:39.613Z,30.85
2018-02-19T04:16:07.883Z,34.96
2018-02-19T04:18:36.174Z,32.24
2018-02-19T04:21:10.382Z,31.80
2018-02-19T04:23:38.673Z,31.60
2018-02-19T04:26:07.950Z,30.08
2018-02-19T04:28:36.252Z,32.60
2018-02-19T04:31:06.487Z,31.94
2018-02-19T04:33:34.778Z,30.94
2018-02-19T04:36:16.438Z,34.00
2018-02-19T04:38:44.735Z,33.12
2018-02-19T04:41:12.982Z,28.62
2018-02-19T04:43:41.243Z,35.33
2018-02-19T04:46:24.858Z,31.72
2018-02-19T04:48:53.139Z,31.42
2018-02-19T04:51:22.303Z,33.40
2018-02-19T04:53:50.602Z,30.32
2018-02-19T04:56:35.230Z,33.04
2018-02-19T04:59:03.519Z,30.80
2018-02-19T05:01:32.722Z,30.90
2018-02-19T05:04:01.011Z,31.20
2018-02-19T05:06:29.257Z,32.26
2018-02-19T05:08:57.545Z,30.90
2018-02-19T05:11:26.670Z,29.98
2018-02-19T05:13:55.670Z,30.42
2018-02-19T05:16:23.975Z,29.46
2018-02-19T05:18:52.254Z,30.42
2018-02-19T05:21:26.950Z,28.96
2018-02-19T05:23:56.378Z,31.52
2018-02-19T05:26:24.631Z,27.88
2018-02-19T05:28:52.882Z,29.74
2018-02-19T05:31:27.550Z,29.18
2018-02-19T05:33:56.798Z,31.28
2018-02-19T05:36:33.190Z,32.03
2018-02-19T05:39:01.442Z,29.12
2018-02-19T05:41:29.694Z,29.82
2018-02-19T05:43:58.001Z,30.23
2018-02-19T05:46:27.215Z,29.04
2018-02-19T05:48:56.483Z,29.50
2018-02-19T05:51:32.426Z,25.90
2018-02-19T05:54:00.706Z,29.94
2018-02-19T05:56:30.911Z,29.84
2018-02-19T05:58:59.193Z,28.58
2018-02-19T06:01:27.446Z,28.78
2018-02-19T06:03:57.034Z,26.50
2018-02-19T06:06:27.026Z,28.30
2018-02-19T06:08:56.334Z,27.00
2018-02-19T06:11:24.618Z,25.84
2018-02-19T06:13:58.578Z,27.98
2018-02-19T06:16:28.061Z,28.22
2018-02-19T06:18:57.891Z,28.68
2018-02-19T06:21:26.142Z,26.40
2018-02-19T06:23:56.646Z,25.90
2018-02-19T06:26:25.617Z,25.78
2018-02-19T06:29:12.971Z,26.34
2018-02-19T06:31:41.247Z,26.86
2018-02-19T06:34:19.726Z,26.02
2018-02-19T06:36:47.987Z,25.68
2018-02-19T06:39:16.274Z,26.06
2018-02-19T06:41:44.558Z,25.92
2018-02-19T06:44:22.869Z,25.76
2018-02-19T06:46:51.133Z,25.50
2018-02-19T06:49:20.335Z,26.88
2018-02-19T06:51:48.630Z,25.82
2018-02-19T06:54:16.893Z,25.86
2018-02-19T06:56:45.178Z,26.88
2018-02-19T06:59:13.458Z,27.78
2018-02-19T07:01:41.716Z,27.92
2018-02-19T07:04:26.663Z,27.10
2018-02-19T07:06:55.740Z,25.08
2018-02-19T07:09:24.022Z,24.08
2018-02-19T07:11:57.794Z,26.08
2018-02-19T07:14:26.091Z,24.98
2018-02-19T07:16:56.410Z,23.16
2018-02-19T07:19:24.686Z,26.34
2018-02-19T07:21:53.002Z,26.82
2018-02-19T07:24:21.254Z,27.50
2018-02-19T07:26:50.511Z,25.72
2018-02-19T07:29:18.798Z,27.48
2018-02-19T07:31:47.079Z,24.40
2018-02-19T07:34:15.359Z,26.82
2018-02-19T07:36:44.609Z,24.92
2018-02-19T07:39:12.902Z,23.92
2018-02-19T07:41:43.178Z,24.32
2018-02-19T07:44:10.729Z,22.50
2018-02-19T07:46:46.285Z,25.10
2018-02-19T07:49:14.593Z,23.26
2018-02-19T07:51:42.856Z,25.96
2018-02-19T07:54:11.117Z,25.56
2018-02-19T07:56:46.483Z,25.52
2018-02-19T07:59:14.781Z,25.22
2018-02-19T08:01:43.031Z,24.20
2018-02-19T08:04:11.294Z,24.56
2018-02-19T08:06:40.544Z,25.78
2018-02-19T08:09:08.794Z,22.90
2018-02-19T08:11:37.073Z,25.14
2018-02-19T08:14:05.325Z,24.36
2018-02-19T08:16:33.614Z,28.10
2018-02-19T08:19:01.874Z,24.92
2018-02-19T08:21:30.126Z,25.86
2018-02-19T08:23:58.419Z,23.94
2018-02-19T08:26:27.327Z,24.82
2018-02-19T08:28:56.300Z,24.28
2018-02-19T08:31:24.590Z,26.78
2018-02-19T08:33:52.878Z,24.90
2018-02-19T08:36:21.126Z,23.68
2018-02-19T08:38:49.386Z,25.64
2018-02-19T08:41:17.667Z,27.90
2018-02-19T08:43:45.950Z,25.12
2018-02-19T08:46:14.219Z,24.12
2018-02-19T08:48:42.498Z,25.58
2018-02-19T08:51:10.750Z,23.68
2018-02-19T08:53:39.054Z,26.12
2018-02-19T08:56:07.306Z,26.46
2018-02-19T08:58:35.550Z,24.96
2018-02-19T09:01:03.831Z,24.16
2018-02-19T09:03:32.114Z,24.08
2018-02-19T09:06:00.406Z,26.02
2018-02-19T09:08:28.671Z,23.84
2018-02-19T09:10:58.006Z,24.46
2018-02-19T09:13:26.764Z,23.20
2018-02-19T09:15:55.778Z,24.80
2018-02-19T09:18:24.063Z,25.36
2018-02-19T09:20:52.318Z,27.08
2018-02-19T09:23:27.251Z,24.98
2018-02-19T09:25:55.515Z,22.02
2018-02-19T09:28:25.750Z,25.98
2018-02-19T09:30:53.238Z,22.78
2018-02-19T09:33:22.404Z,26.80
2018-02-19T09:35:50.700Z,24.44
2018-02-19T09:38:18.989Z,24.64
2018-02-19T09:40:47.279Z,26.04
2018-02-19T09:43:15.546Z,24.02
2018-02-19T09:45:43.079Z,24.46
2018-02-19T09:48:11.335Z,23.26
2018-02-19T09:50:39.598Z,26.32
2018-02-19T09:53:07.882Z,25.86
2018-02-19T09:55:37.350Z,23.44
2018-02-19T09:58:06.443Z,25.32
2018-02-19T10:00:35.758Z,26.00
2018-02-19T10:03:04.026Z,26.24
2018-02-19T10:05:32.320Z,26.10
2018-02-19T10:08:00.612Z,26.74
2018-02-19T10:10:28.870Z,24.52
2018-02-19T10:12:57.160Z,23.56
2018-02-19T10:15:24.668Z,26.58
2018-02-19T10:17:52.963Z,25.46
2018-02-19T10:20:21.218Z,23.86
2018-02-19T10:22:49.510Z,23.22
2018-02-19T10:25:17.774Z,25.18
2018-02-19T10:27:46.072Z,23.76
2018-02-19T10:30:14.335Z,23.88
2018-02-19T10:32:42.591Z,25.24
2018-02-19T10:35:10.883Z,24.94
2018-02-19T10:37:39.143Z,24.80
2018-02-19T10:40:07.429Z,24.68
2018-02-19T10:42:36.798Z,26.06
2018-02-19T10:45:05.678Z,24.24
2018-02-19T10:47:33.926Z,24.38
2018-02-19T10:50:02.211Z,25.18
2018-02-19T10:52:30.548Z,26.28
2018-02-19T10:54:58.811Z,26.40
2018-02-19T10:57:30.109Z,23.76
2018-02-19T10:59:58.397Z,26.12
2018-02-19T11:02:26.647Z,26.02
2018-02-19T11:04:55.000Z,24.62
2018-02-19T11:07:23.226Z,26.62
2018-02-19T11:09:51.512Z,24.08
2018-02-19T11:12:19.790Z,26.72
2018-02-19T11:14:48.046Z,24.68
2018-02-19T11:17:16.339Z,24.46
2018-02-19T11:19:44.595Z,23.60
2018-02-19T11:22:12.875Z,25.86
2018-02-19T11:24:41.126Z,25.86
2018-02-19T11:27:09.411Z,23.96
2018-02-19T11:29:37.667Z,24.12
2018-02-19T11:32:06.526Z,24.52
2018-02-19T11:34:35.774Z,28.66
2018-02-19T11:37:04.026Z,24.62
2018-02-19T11:39:32.306Z,27.78
2018-02-19T11:42:00.562Z,25.70
2018-02-19T11:44:28.842Z,27.04
2018-02-19T11:46:57.107Z,26.24
2018-02-19T11:49:25.395Z,28.00
2018-02-19T11:51:53.650Z,26.92
2018-02-19T11:54:21.934Z,27.28
2018-02-19T11:56:50.195Z,26.74
2018-02-19T11:59:18.486Z,26.40
2018-02-19T12:01:46.735Z,25.42
2018-02-19T12:04:14.992Z,26.22
2018-02-19T12:06:43.288Z,24.62
2018-02-19T12:09:11.560Z,24.80
2018-02-19T12:11:39.859Z,27.56
2018-02-19T12:14:10.015Z,25.96
2018-02-19T12:16:37.533Z,24.50
2018-02-19T12:19:06.466Z,27.82
2018-02-19T12:21:35.815Z,27.04
2018-02-19T12:24:04.076Z,24.22
2018-02-19T12:26:32.372Z,25.86
2018-02-19T12:29:00.651Z,23.90
2018-02-19T12:31:28.958Z,25.04
2018-02-19T12:33:57.215Z,24.88
2018-02-19T12:36:25.466Z,24.52
2018-02-19T12:38:53.755Z,25.68
2018-02-19T12:41:22.039Z,24.36
2018-02-19T12:43:50.295Z,25.02
2018-02-19T12:46:18.598Z,25.38
2018-02-19T12:48:46.850Z,22.66
2018-02-19T12:51:15.103Z,23.94
2018-02-19T12:53:43.382Z,25.38
2018-02-19T12:56:11.634Z,22.34
2018-02-19T12:58:39.919Z,21.92
2018-02-19T13:01:08.206Z,23.34
2018-02-19T13:03:36.502Z,23.60
2018-02-19T13:06:05.431Z,23.70
2018-02-19T13:08:33.727Z,25.84
2018-02-19T13:11:01.984Z,25.68
2018-02-19T13:13:30.242Z,22.30
2018-02-19T13:15:58.522Z,21.16
2018-02-19T13:18:26.811Z,21.88
2018-02-19T13:20:55.063Z,21.56
2018-02-19T13:23:23.363Z,25.14
2018-02-19T13:25:51.619Z,20.52
2018-02-19T13:28:19.883Z,20.78
2018-02-19T13:30:48.179Z,22.30
2018-02-19T13:33:16.439Z,22.68
2018-02-19T13:35:44.694Z,23.94
2018-02-19T13:38:12.986Z,22.52
2018-02-19T13:40:41.243Z,22.10
2018-02-19T13:43:09.536Z,22.26
2018-02-19T13:45:37.055Z,22.60
2018-02-19T13:48:05.323Z,22.36
2018-02-19T13:50:33.616Z,19.70
2018-02-19T13:53:01.132Z,22.44
2018-02-19T13:55:30.391Z,23.50
2018-02-19T13:57:58.675Z,21.96
2018-02-19T14:00:26.930Z,21.60
2018-02-19T14:02:55.226Z,21.48
2018-02-19T14:05:33.642Z,23.34
2018-02-19T14:08:01.899Z,21.62
2018-02-19T14:10:32.119Z,21.58
2018-02-19T14:13:00.375Z,21.86
2018-02-19T14:15:27.895Z,21.52
2018-02-19T14:17:56.142Z,22.06
2018-02-19T14:20:24.441Z,21.62
2018-02-19T14:22:52.694Z,23.22
2018-02-19T14:25:22.889Z,22.66
2018-02-19T14:27:50.381Z,21.20
2018-02-19T14:30:18.634Z,19.58
2018-02-19T14:32:46.926Z,21.98
2018-02-19T14:35:15.178Z,23.90
2018-02-19T14:37:43.450Z,20.96
2018-02-19T14:40:13.721Z,22.98
2018-02-19T14:42:41.974Z,21.64
2018-02-19T14:45:12.251Z,19.90
2018-02-19T14:47:40.550Z,21.80
2018-02-19T14:50:08.838Z,21.40
2018-02-19T14:52:38.106Z,22.68
2018-02-19T14:55:06.361Z,21.78
2018-02-19T14:57:36.546Z,20.94
2018-02-19T15:00:05.691Z,21.50
2018-02-19T15:02:37.055Z,22.42
2018-02-19T15:05:05.343Z,21.26
2018-02-19T15:07:33.599Z,21.42
2018-02-19T15:10:01.874Z,21.12
2018-02-19T15:12:30.137Z,21.46
2018-02-19T15:14:58.427Z,21.78
2018-02-19T15:17:26.726Z,21.84
2018-02-19T15:19:54.986Z,21.88
2018-02-19T15:22:23.229Z,21.46
2018-02-19T15:24:51.513Z,21.50
2018-02-19T15:27:19.038Z,22.28
2018-02-19T15:29:47.299Z,21.04
2018-02-19T15:32:15.564Z,23.92
2018-02-19T15:34:43.854Z,24.56
2018-02-19T15:37:12.112Z,21.76
2018-02-19T15:39:40.359Z,23.78
2018-02-19T15:42:08.646Z,24.76
2018-02-19T15:44:36.895Z,23.22
2018-02-19T15:47:05.719Z,21.84
2018-02-19T15:49:33.974Z,22.94
2018-02-19T15:52:02.280Z,23.10
2018-02-19T15:54:30.538Z,21.74
2018-02-19T15:56:58.055Z,23.24
2018-02-19T15:59:26.339Z,23.30
2018-02-19T16:01:54.605Z,22.00
2018-02-19T16:04:26.122Z,21.10
2018-02-19T16:06:54.379Z,21.50
2018-02-19T16:09:22.669Z,23.28
2018-02-19T16:11:50.934Z,21.96
2018-02-19T16:14:18.454Z,22.06
2018-02-19T16:16:46.711Z,23.12
2018-02-19T16:19:14.978Z,23.90
2018-02-19T16:21:43.258Z,21.20
2018-02-19T16:24:10.774Z,21.30
2018-02-19T16:26:39.051Z,21.44
2018-02-19T16:29:07.302Z,20.84
2018-02-19T16:31:36.431Z,21.36
2018-02-19T16:34:05.351Z,22.68
2018-02-19T16:36:33.634Z,21.86
2018-02-19T16:39:01.914Z,23.00
2018-02-19T16:41:29.398Z,22.04
2018-02-19T16:43:57.690Z,23.46
2018-02-19T16:46:25.187Z,19.94
2018-02-19T16:48:53.443Z,22.82
2018-02-19T16:51:21.751Z,23.40
2018-02-19T16:53:50.011Z,22.52
2018-02-19T16:56:18.263Z,20.58
2018-02-19T16:58:46.547Z,22.42
2018-02-19T17:01:21.421Z,22.80
2018-02-19T17:03:52.934Z,22.12
2018-02-19T17:06:21.397Z,23.52
2018-02-19T17:08:49.684Z,20.08
2018-02-19T17:11:17.175Z,22.42
2018-02-19T17:13:45.454Z,20.14
2018-02-19T17:16:13.743Z,19.62
2018-02-19T17:18:42.019Z,22.52
2018-02-19T17:21:10.318Z,20.70
2018-02-19T17:23:38.567Z,21.88
2018-02-19T17:26:06.822Z,24.60
2018-02-19T17:28:36.126Z,30.18
2018-02-19T17:31:04.414Z,29.22
2018-02-19T17:33:32.698Z,23.32
2018-02-19T17:36:00.983Z,22.74
2018-02-19T17:38:29.272Z,22.16
2018-02-19T17:40:57.527Z,23.76
2018-02-19T17:43:25.786Z,22.62
2018-02-19T17:45:54.079Z,21.08
2018-02-19T17:48:22.330Z,21.38
2018-02-19T17:50:50.610Z,21.34
2018-02-19T17:53:18.866Z,21.56
2018-02-19T17:55:47.157Z,22.84
2018-02-19T17:58:15.406Z,24.42
2018-02-19T18:00:43.686Z,21.30
2018-02-19T18:03:11.938Z,22.78
2018-02-19T18:05:40.214Z,21.60
2018-02-19T18:08:08.467Z,21.54
2018-02-19T18:10:36.754Z,23.48
2018-02-19T18:13:05.981Z,22.96
2018-02-19T18:15:34.888Z,22.02
2018-02-19T18:18:03.179Z,24.30
2018-02-19T18:20:31.455Z,23.36
2018-02-19T18:22:59.750Z,23.66
2018-02-19T18:25:28.008Z,23.40
2018-02-19T18:27:56.987Z,23.54
2018-02-19T18:30:25.255Z,22.64
2018-02-19T18:32:53.538Z,22.02
2018-02-19T18:35:21.799Z,22.98
2018-02-19T18:37:50.096Z,22.88
2018-02-19T18:40:18.403Z,25.42
2018-02-19T18:42:46.689Z,25.64
2018-02-19T18:45:14.959Z,22.32
2018-02-19T18:47:43.211Z,21.78
2018-02-19T18:50:11.506Z,21.62
2018-02-19T18:52:39.015Z,23.22
2018-02-19T18:55:07.294Z,23.18
2018-02-19T18:57:36.820Z,25.26
2018-02-19T19:00:05.979Z,26.12
2018-02-19T19:02:35.044Z,26.00
2018-02-19T19:05:03.303Z,25.16
2018-02-19T19:07:43.388Z,25.02
2018-02-19T19:10:23.426Z,27.20
2018-02-19T19:12:51.713Z,24.80
2018-02-19T19:15:19.245Z,26.22
2018-02-19T19:17:47.508Z,26.60
2018-02-19T19:20:15.803Z,25.36
2018-02-19T19:22:44.054Z,25.00
2018-02-19T19:25:12.343Z,27.14
2018-02-19T19:27:40.634Z,26.24
2018-02-19T19:30:08.896Z,26.78
2018-02-19T19:32:37.179Z,26.30
2018-02-19T19:35:05.426Z,26.56
2018-02-19T19:37:33.711Z,25.30
2018-02-19T19:40:02.008Z,26.54
2018-02-19T19:42:29.530Z,27.32
2018-02-19T19:44:57.810Z,27.26
2018-02-19T19:47:26.057Z,27.40
2018-02-19T19:49:54.342Z,25.78
2018-02-19T19:52:22.594Z,24.44
2018-02-19T19:54:50.875Z,26.36
2018-02-19T19:57:19.163Z,27.98
2018-02-19T19:59:47.458Z,26.54
2018-02-19T20:02:14.959Z,27.94
2018-02-19T20:04:43.210Z,27.48
2018-02-19T20:07:10.726Z,25.30
2018-02-19T20:09:38.974Z,26.34
2018-02-19T20:12:07.263Z,26.04
2018-02-19T20:14:36.675Z,26.46
2018-02-19T20:17:05.696Z,26.88
2018-02-19T20:19:33.982Z,25.82
2018-02-19T20:22:02.275Z,25.14
2018-02-19T20:24:30.552Z,26.78
2018-02-19T20:26:58.838Z,27.74
2018-02-19T20:29:27.123Z,38.12
2018-02-19T20:31:55.378Z,28.98
2018-02-19T20:34:23.675Z,28.76
2018-02-19T20:36:51.970Z,31.36
2018-02-19T20:39:20.278Z,28.30
2018-02-19T20:41:48.567Z,34.84
2018-02-19T20:44:16.826Z,35.30
2018-02-19T20:46:45.119Z,35.12
2018-02-19T20:49:13.375Z,32.32
2018-02-19T20:51:41.674Z,33.62
2018-02-19T20:54:09.932Z,33.10
2018-02-19T20:56:38.222Z,30.08
2018-02-19T20:59:06.806Z,30.00
2018-02-19T21:01:34.902Z,27.64
2018-02-19T21:04:03.183Z,29.56
2018-02-19T21:06:31.479Z,27.70
2018-02-19T21:08:59.730Z,30.42
2018-02-19T21:11:28.016Z,28.96
2018-02-19T21:13:55.518Z,26.36
2018-02-19T21:16:23.818Z,28.04
2018-02-19T21:18:52.074Z,27.02
2018-02-19T21:21:20.370Z,28.58
2018-02-19T21:23:48.634Z,30.30
2018-02-19T21:26:16.922Z,28.72
2018-02-19T21:28:45.175Z,28.82
2018-02-19T21:31:13.462Z,26.86
2018-02-19T21:33:41.726Z,25.70
2018-02-19T21:36:09.978Z,28.72
2018-02-19T21:38:38.258Z,27.32
2018-02-19T21:41:06.567Z,27.84
2018-02-19T21:43:35.649Z,25.72
2018-02-19T21:46:03.902Z,28.54
2018-02-19T21:48:32.190Z,26.62
2018-02-19T21:51:00.449Z,27.26
2018-02-19T21:53:28.743Z,26.56
2018-02-19T21:55:56.994Z,23.50
2018-02-19T21:58:25.282Z,27.06
2018-02-19T22:00:53.535Z,29.26
2018-02-19T22:03:21.813Z,27.34
2018-02-19T22:05:50.066Z,29.70
2018-02-19T22:08:18.360Z,28.36
2018-02-19T22:10:46.610Z,28.32
2018-02-19T22:13:14.862Z,24.36
2018-02-19T22:15:43.150Z,26.50
2018-02-19T22:18:11.401Z,25.54
2018-02-19T22:20:38.886Z,26.62
2018-02-19T22:23:07.170Z,25.62
2018-02-19T22:25:36.321Z,29.02
2018-02-19T22:28:05.246Z,26.28
2018-02-19T22:30:33.526Z,25.62
2018-02-19T22:33:01.783Z,26.94
2018-02-19T22:35:30.066Z,26.36
2018-02-19T22:37:58.327Z,28.96
2018-02-19T22:40:26.623Z,28.06
2018-02-19T22:42:54.890Z,27.34
2018-02-19T22:45:22.373Z,26.04
2018-02-19T22:47:50.670Z,25.66
2018-02-19T22:50:18.925Z,27.54
2018-02-19T22:52:47.180Z,29.38
2018-02-19T22:55:15.467Z,25.04
2018-02-19T22:57:43.722Z,26.98
2018-02-19T23:00:12.911Z,27.96
2018-02-19T23:02:40.401Z,26.10
2018-02-19T23:05:07.890Z,24.24
2018-02-19T23:07:37.098Z,23.96
2018-02-19T23:10:05.375Z,26.04
2018-02-19T23:12:33.629Z,24.24
2018-02-19T23:15:01.918Z,26.20
2018-02-19T23:17:30.175Z,25.04
2018-02-19T23:19:58.462Z,27.90
2018-02-19T23:22:26.722Z,24.18
2018-02-19T23:24:54.998Z,25.96
2018-02-19T23:27:23.278Z,23.62
2018-02-19T23:29:51.527Z,26.04
2018-02-19T23:32:19.823Z,26.74
2018-02-19T23:34:48.111Z,23.84
2018-02-19T23:37:16.370Z,25.18
2018-02-19T23:39:44.642Z,27.84
2018-02-19T23:42:12.929Z,27.54
2018-02-19T23:44:40.419Z,27.58
2018-02-19T23:47:08.676Z,25.36
2018-02-19T23:49:36.965Z,25.30
2018-02-19T23:52:05.795Z,25.86
2018-02-19T23:54:36.195Z,27.66
2018-02-19T23:57:04.474Z,24.62
2018-02-19T23:59:32.763Z,25.54
